sensor_id;sensor_type;location;lat;lon;timestamp;P1;durP1;ratioP1;P2;durP2;ratioP2
64291;SDS011;50628;51.008;13.658;2023-09-18T00:04:03;8.50;;;5.50;;
64291;SDS011;50628;51.008;13.658;2023-09-18T00:09:05;5.00;;;4.50;;
64291;SDS011;50628;51.008;13.658;2023-09-18T00:14:13;7.78;;;4.60;;
64291;SDS011;50628;51.008;13.658;2023-09-18T00:19:14;6.07;;;4.95;;
64291;SDS011;50628;51.008;13.658;2023-09-18T00:24:16;4.28;;;3.85;;
64291;SDS011;50628;51.008;13.658;2023-09-18T00:29:20;5.10;;;4.53;;
64291;SDS011;50628;51.008;13.658;2023-09-18T00:34:21;4.63;;;4.20;;
64291;SDS011;50628;51.008;13.658;2023-09-18T00:39:23;5.57;;;4.75;;
64291;SDS011;50628;51.008;13.658;2023-09-18T00:44:26;5.30;;;4.85;;
64291;SDS011;50628;51.008;13.658;2023-09-18T00:49:28;4.78;;;4.38;;
64291;SDS011;50628;51.008;13.658;2023-09-18T00:54:31;5.03;;;4.53;;
64291;SDS011;50628;51.008;13.658;2023-09-18T01:04:40;6.63;;;4.65;;
64291;SDS011;50628;51.008;13.658;2023-09-18T01:09:44;5.60;;;5.10;;
64291;SDS011;50628;51.008;13.658;2023-09-18T01:14:50;5.20;;;4.80;;
64291;SDS011;50628;51.008;13.658;2023-09-18T01:19:58;5.70;;;5.15;;
64291;SDS011;50628;51.008;13.658;2023-09-18T01:25:02;5.53;;;5.03;;
64291;SDS011;50628;51.008;13.658;2023-09-18T01:30:05;6.40;;;4.90;;
64291;SDS011;50628;51.008;13.658;2023-09-18T01:35:07;5.85;;;5.25;;
64291;SDS011;50628;51.008;13.658;2023-09-18T01:40:13;6.57;;;4.50;;
64291;SDS011;50628;51.008;13.658;2023-09-18T01:45:15;8.30;;;4.82;;
64291;SDS011;50628;51.008;13.658;2023-09-18T01:50:17;8.02;;;4.85;;
64291;SDS011;50628;51.008;13.658;2023-09-18T01:55:20;7.47;;;4.60;;
64291;SDS011;50628;51.008;13.658;2023-09-18T02:00:22;4.97;;;4.57;;
64291;SDS011;50628;51.008;13.658;2023-09-18T02:05:24;5.28;;;4.75;;
64291;SDS011;50628;51.008;13.658;2023-09-18T02:10:27;4.68;;;4.28;;
64291;SDS011;50628;51.008;13.658;2023-09-18T02:15:29;8.25;;;4.68;;
64291;SDS011;50628;51.008;13.658;2023-09-18T02:20:39;5.78;;;3.90;;
64291;SDS011;50628;51.008;13.658;2023-09-18T02:25:43;6.30;;;4.57;;
64291;SDS011;50628;51.008;13.658;2023-09-18T02:30:45;5.38;;;4.88;;
64291;SDS011;50628;51.008;13.658;2023-09-18T02:35:47;7.18;;;5.35;;
64291;SDS011;50628;51.008;13.658;2023-09-18T02:40:50;5.85;;;4.85;;
64291;SDS011;50628;51.008;13.658;2023-09-18T02:45:53;6.03;;;4.80;;
64291;SDS011;50628;51.008;13.658;2023-09-18T02:50:55;7.47;;;4.60;;
64291;SDS011;50628;51.008;13.658;2023-09-18T02:55:59;8.10;;;5.33;;
64291;SDS011;50628;51.008;13.658;2023-09-18T03:01:02;7.35;;;5.47;;
64291;SDS011;50628;51.008;13.658;2023-09-18T03:06:06;7.20;;;5.70;;
64291;SDS011;50628;51.008;13.658;2023-09-18T03:11:13;9.48;;;5.80;;
64291;SDS011;50628;51.008;13.658;2023-09-18T03:16:18;7.13;;;4.85;;
64291;SDS011;50628;51.008;13.658;2023-09-18T03:21:21;7.03;;;5.37;;
64291;SDS011;50628;51.008;13.658;2023-09-18T03:26:24;9.83;;;6.13;;
64291;SDS011;50628;51.008;13.658;2023-09-18T03:31:26;19.80;;;6.90;;
64291;SDS011;50628;51.008;13.658;2023-09-18T03:36:30;8.67;;;5.27;;
64291;SDS011;50628;51.008;13.658;2023-09-18T03:41:34;22.53;;;18.50;;
64291;SDS011;50628;51.008;13.658;2023-09-18T03:46:37;9.60;;;6.83;;
64291;SDS011;50628;51.008;13.658;2023-09-18T03:51:38;9.00;;;6.20;;
64291;SDS011;50628;51.008;13.658;2023-09-18T03:56:42;7.30;;;6.37;;
64291;SDS011;50628;51.008;13.658;2023-09-18T04:01:44;9.43;;;6.60;;
64291;SDS011;50628;51.008;13.658;2023-09-18T04:06:45;6.53;;;5.90;;
64291;SDS011;50628;51.008;13.658;2023-09-18T04:11:49;8.63;;;6.83;;
64291;SDS011;50628;51.008;13.658;2023-09-18T04:16:51;10.77;;;6.50;;
64291;SDS011;50628;51.008;13.658;2023-09-18T04:21:53;12.10;;;6.70;;
64291;SDS011;50628;51.008;13.658;2023-09-18T04:26:56;10.83;;;6.40;;
64291;SDS011;50628;51.008;13.658;2023-09-18T04:31:58;9.13;;;6.30;;
64291;SDS011;50628;51.008;13.658;2023-09-18T04:37:01;9.67;;;6.07;;
64291;SDS011;50628;51.008;13.658;2023-09-18T04:42:06;8.37;;;6.17;;
64291;SDS011;50628;51.008;13.658;2023-09-18T04:47:08;13.40;;;6.80;;
64291;SDS011;50628;51.008;13.658;2023-09-18T04:52:11;9.37;;;5.80;;
64291;SDS011;50628;51.008;13.658;2023-09-18T04:57:14;8.60;;;6.57;;
64291;SDS011;50628;51.008;13.658;2023-09-18T05:02:16;13.27;;;6.93;;
64291;SDS011;50628;51.008;13.658;2023-09-18T05:07:18;13.23;;;7.03;;
64291;SDS011;50628;51.008;13.658;2023-09-18T05:12:22;10.73;;;7.33;;
64291;SDS011;50628;51.008;13.658;2023-09-18T05:17:38;14.13;;;10.23;;
64291;SDS011;50628;51.008;13.658;2023-09-18T05:22:46;18.53;;;7.63;;
64291;SDS011;50628;51.008;13.658;2023-09-18T05:27:50;10.43;;;7.40;;
64291;SDS011;50628;51.008;13.658;2023-09-18T05:32:56;9.73;;;6.13;;
64291;SDS011;50628;51.008;13.658;2023-09-18T05:38:04;14.17;;;7.03;;
64291;SDS011;50628;51.008;13.658;2023-09-18T05:43:08;9.90;;;7.83;;
64291;SDS011;50628;51.008;13.658;2023-09-18T05:48:10;17.33;;;7.67;;
64291;SDS011;50628;51.008;13.658;2023-09-18T05:53:12;17.43;;;6.83;;
64291;SDS011;50628;51.008;13.658;2023-09-18T05:58:15;15.98;;;7.50;;
64291;SDS011;50628;51.008;13.658;2023-09-18T06:03:19;19.13;;;8.18;;
64291;SDS011;50628;51.008;13.658;2023-09-18T06:08:22;11.48;;;7.63;;
64291;SDS011;50628;51.008;13.658;2023-09-18T06:13:27;17.23;;;8.18;;
64291;SDS011;50628;51.008;13.658;2023-09-18T06:18:29;16.30;;;6.97;;
64291;SDS011;50628;51.008;13.658;2023-09-18T06:23:31;9.38;;;6.45;;
64291;SDS011;50628;51.008;13.658;2023-09-18T06:28:34;10.93;;;5.50;;
64291;SDS011;50628;51.008;13.658;2023-09-18T06:33:36;10.15;;;6.20;;
64291;SDS011;50628;51.008;13.658;2023-09-18T06:38:38;8.52;;;5.95;;
64291;SDS011;50628;51.008;13.658;2023-09-18T06:43:41;12.60;;;5.45;;
64291;SDS011;50628;51.008;13.658;2023-09-18T06:48:43;8.20;;;4.45;;
64291;SDS011;50628;51.008;13.658;2023-09-18T06:53:45;7.15;;;5.60;;
64291;SDS011;50628;51.008;13.658;2023-09-18T06:58:49;12.13;;;5.15;;
64291;SDS011;50628;51.008;13.658;2023-09-18T07:03:51;5.68;;;4.40;;
64291;SDS011;50628;51.008;13.658;2023-09-18T07:08:53;5.75;;;4.25;;
64291;SDS011;50628;51.008;13.658;2023-09-18T07:13:56;6.05;;;4.15;;
64291;SDS011;50628;51.008;13.658;2023-09-18T07:18:58;6.80;;;4.57;;
64291;SDS011;50628;51.008;13.658;2023-09-18T07:24:00;9.90;;;4.40;;
64291;SDS011;50628;51.008;13.658;2023-09-18T07:29:03;9.05;;;3.90;;
64291;SDS011;50628;51.008;13.658;2023-09-18T07:34:05;6.45;;;3.67;;
64291;SDS011;50628;51.008;13.658;2023-09-18T07:39:07;9.10;;;4.40;;
64291;SDS011;50628;51.008;13.658;2023-09-18T07:44:10;7.40;;;3.67;;
64291;SDS011;50628;51.008;13.658;2023-09-18T07:49:12;5.28;;;3.80;;
64291;SDS011;50628;51.008;13.658;2023-09-18T07:54:14;8.27;;;3.78;;
64291;SDS011;50628;51.008;13.658;2023-09-18T07:59:18;8.18;;;4.22;;
64291;SDS011;50628;51.008;13.658;2023-09-18T08:04:20;9.68;;;3.90;;
64291;SDS011;50628;51.008;13.658;2023-09-18T08:09:22;11.95;;;3.53;;
64291;SDS011;50628;51.008;13.658;2023-09-18T08:14:26;5.93;;;2.97;;
64291;SDS011;50628;51.008;13.658;2023-09-18T08:19:28;7.70;;;3.50;;
64291;SDS011;50628;51.008;13.658;2023-09-18T08:24:30;11.93;;;4.15;;
64291;SDS011;50628;51.008;13.658;2023-09-18T08:29:33;3.35;;;2.60;;
64291;SDS011;50628;51.008;13.658;2023-09-18T08:34:35;3.72;;;2.88;;
64291;SDS011;50628;51.008;13.658;2023-09-18T08:39:37;4.43;;;3.00;;
64291;SDS011;50628;51.008;13.658;2023-09-18T08:44:40;6.32;;;2.92;;
64291;SDS011;50628;51.008;13.658;2023-09-18T08:49:45;8.13;;;2.60;;
64291;SDS011;50628;51.008;13.658;2023-09-18T08:54:49;6.13;;;2.65;;
64291;SDS011;50628;51.008;13.658;2023-09-18T08:59:55;12.23;;;3.10;;
64291;SDS011;50628;51.008;13.658;2023-09-18T09:04:57;3.60;;;2.25;;
64291;SDS011;50628;51.008;13.658;2023-09-18T09:09:59;5.93;;;2.80;;
64291;SDS011;50628;51.008;13.658;2023-09-18T09:15:03;3.38;;;2.67;;
64291;SDS011;50628;51.008;13.658;2023-09-18T09:20:07;10.95;;;9.85;;
64291;SDS011;50628;51.008;13.658;2023-09-18T09:30:33;2.72;;;2.30;;
64291;SDS011;50628;51.008;13.658;2023-09-18T09:35:36;6.97;;;2.45;;
64291;SDS011;50628;51.008;13.658;2023-09-18T09:40:39;3.13;;;2.53;;
64291;SDS011;50628;51.008;13.658;2023-09-18T09:45:44;4.05;;;2.33;;
64291;SDS011;50628;51.008;13.658;2023-09-18T09:50:48;8.15;;;3.13;;
64291;SDS011;50628;51.008;13.658;2023-09-18T09:55:53;5.05;;;2.50;;
64291;SDS011;50628;51.008;13.658;2023-09-18T10:00:58;3.22;;;2.40;;
64291;SDS011;50628;51.008;13.658;2023-09-18T10:06:09;7.63;;;3.05;;
64291;SDS011;50628;51.008;13.658;2023-09-18T10:11:13;9.40;;;2.33;;
64291;SDS011;50628;51.008;13.658;2023-09-18T10:16:19;7.70;;;2.53;;
64291;SDS011;50628;51.008;13.658;2023-09-18T10:21:27;6.95;;;1.85;;
64291;SDS011;50628;51.008;13.658;2023-09-18T10:26:38;5.75;;;1.70;;
64291;SDS011;50628;51.008;13.658;2023-09-18T10:31:48;8.73;;;2.08;;
64291;SDS011;50628;51.008;13.658;2023-09-18T10:36:52;1.95;;;1.38;;
64291;SDS011;50628;51.008;13.658;2023-09-18T10:41:55;3.67;;;1.80;;
64291;SDS011;50628;51.008;13.658;2023-09-18T10:47:03;3.95;;;1.73;;
64291;SDS011;50628;51.008;13.658;2023-09-18T10:52:11;3.53;;;1.70;;
64291;SDS011;50628;51.008;13.658;2023-09-18T10:57:13;16.25;;;4.03;;
64291;SDS011;50628;51.008;13.658;2023-09-18T11:02:17;3.47;;;2.00;;
64291;SDS011;50628;51.008;13.658;2023-09-18T11:07:20;12.43;;;3.47;;
64291;SDS011;50628;51.008;13.658;2023-09-18T11:12:23;2.83;;;2.38;;
64291;SDS011;50628;51.008;13.658;2023-09-18T11:17:49;7.10;;;3.80;;
64291;SDS011;50628;51.008;13.658;2023-09-18T11:23:15;4.07;;;2.13;;
64291;SDS011;50628;51.008;13.658;2023-09-18T11:28:22;9.85;;;2.60;;
64291;SDS011;50628;51.008;13.658;2023-09-18T11:33:33;3.92;;;2.38;;
64291;SDS011;50628;51.008;13.658;2023-09-18T11:38:37;8.32;;;2.58;;
64291;SDS011;50628;51.008;13.658;2023-09-18T11:43:55;6.32;;;1.80;;
64291;SDS011;50628;51.008;13.658;2023-09-18T11:49:42;2.47;;;2.03;;
64291;SDS011;50628;51.008;13.658;2023-09-18T11:54:49;2.65;;;1.67;;
64291;SDS011;50628;51.008;13.658;2023-09-18T11:59:52;2.55;;;2.35;;
64291;SDS011;50628;51.008;13.658;2023-09-18T12:04:55;4.68;;;1.98;;
64291;SDS011;50628;51.008;13.658;2023-09-18T12:09:57;2.42;;;2.10;;
64291;SDS011;50628;51.008;13.658;2023-09-18T12:14:59;2.28;;;1.85;;
64291;SDS011;50628;51.008;13.658;2023-09-18T12:20:02;8.52;;;2.50;;
64291;SDS011;50628;51.008;13.658;2023-09-18T12:25:09;3.78;;;2.17;;
64291;SDS011;50628;51.008;13.658;2023-09-18T12:30:12;3.75;;;1.98;;
64291;SDS011;50628;51.008;13.658;2023-09-18T12:35:22;3.88;;;1.50;;
64291;SDS011;50628;51.008;13.658;2023-09-18T12:40:29;4.57;;;1.92;;
64291;SDS011;50628;51.008;13.658;2023-09-18T12:45:34;3.15;;;1.48;;
64291;SDS011;50628;51.008;13.658;2023-09-18T12:50:38;3.58;;;1.80;;
64291;SDS011;50628;51.008;13.658;2023-09-18T12:55:40;6.47;;;3.05;;
64291;SDS011;50628;51.008;13.658;2023-09-18T13:00:46;3.78;;;1.83;;
64291;SDS011;50628;51.008;13.658;2023-09-18T13:05:51;3.28;;;2.10;;
64291;SDS011;50628;51.008;13.658;2023-09-18T13:10:55;3.65;;;2.22;;
64291;SDS011;50628;51.008;13.658;2023-09-18T13:15:57;5.20;;;2.20;;
64291;SDS011;50628;51.008;13.658;2023-09-18T13:21:08;6.45;;;3.03;;
64291;SDS011;50628;51.008;13.658;2023-09-18T13:26:11;6.07;;;2.47;;
64291;SDS011;50628;51.008;13.658;2023-09-18T13:31:12;5.65;;;2.50;;
64291;SDS011;50628;51.008;13.658;2023-09-18T13:36:16;7.88;;;3.13;;
64291;SDS011;50628;51.008;13.658;2023-09-18T13:41:17;6.35;;;2.53;;
64291;SDS011;50628;51.008;13.658;2023-09-18T13:46:19;8.25;;;2.67;;
64291;SDS011;50628;51.008;13.658;2023-09-18T13:51:23;7.00;;;2.35;;
64291;SDS011;50628;51.008;13.658;2023-09-18T13:56:25;4.38;;;1.98;;
64291;SDS011;50628;51.008;13.658;2023-09-18T14:01:28;10.70;;;2.63;;
64291;SDS011;50628;51.008;13.658;2023-09-18T14:06:32;10.65;;;2.05;;
64291;SDS011;50628;51.008;13.658;2023-09-18T14:11:34;13.45;;;2.30;;
64291;SDS011;50628;51.008;13.658;2023-09-18T14:16:38;9.13;;;2.08;;
64291;SDS011;50628;51.008;13.658;2023-09-18T14:21:41;13.68;;;2.17;;
64291;SDS011;50628;51.008;13.658;2023-09-18T14:26:43;7.15;;;2.00;;
64291;SDS011;50628;51.008;13.658;2023-09-18T14:31:46;9.70;;;1.92;;
64291;SDS011;50628;51.008;13.658;2023-09-18T14:36:50;5.45;;;1.40;;
64291;SDS011;50628;51.008;13.658;2023-09-18T14:41:52;6.55;;;1.30;;
64291;SDS011;50628;51.008;13.658;2023-09-18T14:46:54;9.10;;;1.27;;
64291;SDS011;50628;51.008;13.658;2023-09-18T14:51:57;9.48;;;2.03;;
64291;SDS011;50628;51.008;13.658;2023-09-18T14:56:59;12.35;;;2.05;;
64291;SDS011;50628;51.008;13.658;2023-09-18T15:02:01;4.72;;;1.92;;
64291;SDS011;50628;51.008;13.658;2023-09-18T15:07:05;5.32;;;1.35;;
64291;SDS011;50628;51.008;13.658;2023-09-18T15:12:07;8.23;;;1.98;;
64291;SDS011;50628;51.008;13.658;2023-09-18T15:17:11;5.65;;;0.90;;
64291;SDS011;50628;51.008;13.658;2023-09-18T15:22:14;9.05;;;0.75;;
64291;SDS011;50628;51.008;13.658;2023-09-18T15:27:16;2.03;;;0.70;;
64291;SDS011;50628;51.008;13.658;2023-09-18T15:32:18;7.28;;;1.00;;
64291;SDS011;50628;51.008;13.658;2023-09-18T15:37:23;2.55;;;1.05;;
64291;SDS011;50628;51.008;13.658;2023-09-18T15:42:25;4.88;;;0.80;;
64291;SDS011;50628;51.008;13.658;2023-09-18T15:47:26;2.92;;;0.80;;
64291;SDS011;50628;51.008;13.658;2023-09-18T15:52:30;6.15;;;0.95;;
64291;SDS011;50628;51.008;13.658;2023-09-18T15:57:32;4.45;;;0.60;;
64291;SDS011;50628;51.008;13.658;2023-09-18T16:02:35;6.88;;;1.67;;
64291;SDS011;50628;51.008;13.658;2023-09-18T16:07:39;5.68;;;1.20;;
64291;SDS011;50628;51.008;13.658;2023-09-18T16:12:42;8.40;;;0.90;;
64291;SDS011;50628;51.008;13.658;2023-09-18T16:17:43;4.15;;;0.88;;
64291;SDS011;50628;51.008;13.658;2023-09-18T16:22:47;3.03;;;0.80;;
64291;SDS011;50628;51.008;13.658;2023-09-18T16:27:48;5.38;;;1.65;;
64291;SDS011;50628;51.008;13.658;2023-09-18T16:32:51;6.57;;;0.90;;
64291;SDS011;50628;51.008;13.658;2023-09-18T16:37:54;4.82;;;1.08;;
64291;SDS011;50628;51.008;13.658;2023-09-18T16:42:56;3.28;;;0.63;;
64291;SDS011;50628;51.008;13.658;2023-09-18T16:47:58;6.70;;;1.02;;
64291;SDS011;50628;51.008;13.658;2023-09-18T16:53:01;4.93;;;0.80;;
64291;SDS011;50628;51.008;13.658;2023-09-18T16:58:04;2.40;;;1.13;;
64291;SDS011;50628;51.008;13.658;2023-09-18T17:03:06;5.15;;;1.08;;
64291;SDS011;50628;51.008;13.658;2023-09-18T17:08:10;4.90;;;1.48;;
64291;SDS011;50628;51.008;13.658;2023-09-18T17:13:11;7.05;;;1.77;;
64291;SDS011;50628;51.008;13.658;2023-09-18T17:18:13;7.78;;;1.80;;
64291;SDS011;50628;51.008;13.658;2023-09-18T17:23:17;4.80;;;1.33;;
64291;SDS011;50628;51.008;13.658;2023-09-18T17:28:18;5.90;;;1.80;;
64291;SDS011;50628;51.008;13.658;2023-09-18T17:33:20;4.22;;;1.58;;
64291;SDS011;50628;51.008;13.658;2023-09-18T17:38:24;5.68;;;1.60;;
64291;SDS011;50628;51.008;13.658;2023-09-18T17:43:25;6.18;;;1.10;;
64291;SDS011;50628;51.008;13.658;2023-09-18T17:48:27;8.35;;;2.00;;
64291;SDS011;50628;51.008;13.658;2023-09-18T17:53:31;7.82;;;2.17;;
64291;SDS011;50628;51.008;13.658;2023-09-18T17:58:33;6.28;;;2.20;;
64291;SDS011;50628;51.008;13.658;2023-09-18T18:03:34;4.45;;;1.83;;
64291;SDS011;50628;51.008;13.658;2023-09-18T18:08:41;7.20;;;2.35;;
64291;SDS011;50628;51.008;13.658;2023-09-18T18:13:42;7.68;;;2.00;;
64291;SDS011;50628;51.008;13.658;2023-09-18T18:18:44;5.07;;;1.70;;
64291;SDS011;50628;51.008;13.658;2023-09-18T18:23:48;6.18;;;1.50;;
64291;SDS011;50628;51.008;13.658;2023-09-18T18:28:50;6.97;;;2.25;;
64291;SDS011;50628;51.008;13.658;2023-09-18T18:33:54;4.63;;;1.30;;
64291;SDS011;50628;51.008;13.658;2023-09-18T18:39:01;4.00;;;1.13;;
64291;SDS011;50628;51.008;13.658;2023-09-18T18:44:05;3.33;;;1.02;;
64291;SDS011;50628;51.008;13.658;2023-09-18T18:49:07;2.60;;;0.82;;
64291;SDS011;50628;51.008;13.658;2023-09-18T18:54:10;6.32;;;0.93;;
64291;SDS011;50628;51.008;13.658;2023-09-18T18:59:12;5.20;;;1.60;;
64291;SDS011;50628;51.008;13.658;2023-09-18T19:04:14;6.88;;;1.00;;
64291;SDS011;50628;51.008;13.658;2023-09-18T19:09:18;5.32;;;1.02;;
64291;SDS011;50628;51.008;13.658;2023-09-18T19:14:20;4.68;;;0.93;;
64291;SDS011;50628;51.008;13.658;2023-09-18T19:19:22;3.10;;;0.80;;
64291;SDS011;50628;51.008;13.658;2023-09-18T19:24:25;1.42;;;0.50;;
64291;SDS011;50628;51.008;13.658;2023-09-18T19:29:27;5.72;;;0.90;;
64291;SDS011;50628;51.008;13.658;2023-09-18T19:34:31;2.25;;;0.93;;
64291;SDS011;50628;51.008;13.658;2023-09-18T19:39:34;3.03;;;1.17;;
64291;SDS011;50628;51.008;13.658;2023-09-18T19:44:36;4.78;;;0.73;;
64291;SDS011;50628;51.008;13.658;2023-09-18T19:49:38;5.03;;;1.27;;
64291;SDS011;50628;51.008;13.658;2023-09-18T19:54:41;6.10;;;1.42;;
64291;SDS011;50628;51.008;13.658;2023-09-18T19:59:43;3.53;;;1.27;;
64291;SDS011;50628;51.008;13.658;2023-09-18T20:04:45;3.70;;;1.02;;
64291;SDS011;50628;51.008;13.658;2023-09-18T20:09:49;4.47;;;1.15;;
64291;SDS011;50628;51.008;13.658;2023-09-18T20:14:50;3.38;;;0.88;;
64291;SDS011;50628;51.008;13.658;2023-09-18T20:19:54;1.85;;;0.70;;
64291;SDS011;50628;51.008;13.658;2023-09-18T20:24:57;2.72;;;0.70;;
64291;SDS011;50628;51.008;13.658;2023-09-18T20:30:00;2.25;;;0.70;;
64291;SDS011;50628;51.008;13.658;2023-09-18T20:35:02;4.55;;;0.90;;
64291;SDS011;50628;51.008;13.658;2023-09-18T20:40:07;4.03;;;0.57;;
64291;SDS011;50628;51.008;13.658;2023-09-18T20:45:09;2.97;;;1.10;;
64291;SDS011;50628;51.008;13.658;2023-09-18T20:50:11;2.80;;;0.70;;
64291;SDS011;50628;51.008;13.658;2023-09-18T20:55:15;6.47;;;1.35;;
64291;SDS011;50628;51.008;13.658;2023-09-18T21:00:17;8.10;;;2.13;;
64291;SDS011;50628;51.008;13.658;2023-09-18T21:05:19;2.97;;;1.23;;
64291;SDS011;50628;51.008;13.658;2023-09-18T21:10:22;2.30;;;1.10;;
64291;SDS011;50628;51.008;13.658;2023-09-18T21:15:24;5.30;;;1.23;;
64291;SDS011;50628;51.008;13.658;2023-09-18T21:20:26;4.55;;;0.88;;
64291;SDS011;50628;51.008;13.658;2023-09-18T21:25:29;2.70;;;1.65;;
64291;SDS011;50628;51.008;13.658;2023-09-18T21:30:32;2.63;;;1.48;;
64291;SDS011;50628;51.008;13.658;2023-09-18T21:35:34;3.25;;;1.80;;
64291;SDS011;50628;51.008;13.658;2023-09-18T21:40:37;2.05;;;1.20;;
64291;SDS011;50628;51.008;13.658;2023-09-18T21:45:39;4.15;;;1.58;;
64291;SDS011;50628;51.008;13.658;2023-09-18T21:50:41;2.38;;;1.40;;
64291;SDS011;50628;51.008;13.658;2023-09-18T21:55:45;4.15;;;1.30;;
64291;SDS011;50628;51.008;13.658;2023-09-18T22:00:53;1.58;;;1.20;;
64291;SDS011;50628;51.008;13.658;2023-09-18T22:05:55;3.75;;;0.90;;
64291;SDS011;50628;51.008;13.658;2023-09-18T22:10:58;1.90;;;0.70;;
64291;SDS011;50628;51.008;13.658;2023-09-18T22:16:00;2.25;;;0.90;;
64291;SDS011;50628;51.008;13.658;2023-09-18T22:21:03;5.18;;;1.10;;
64291;SDS011;50628;51.008;13.658;2023-09-18T22:26:07;3.33;;;1.00;;
64291;SDS011;50628;51.008;13.658;2023-09-18T22:31:08;3.17;;;0.95;;
64291;SDS011;50628;51.008;13.658;2023-09-18T22:36:13;4.95;;;1.80;;
64291;SDS011;50628;51.008;13.658;2023-09-18T22:57:39;2.67;;;1.08;;
64291;SDS011;50628;51.008;13.658;2023-09-18T23:02:42;1.55;;;0.77;;
64291;SDS011;50628;51.008;13.658;2023-09-18T23:07:45;3.65;;;1.23;;
64291;SDS011;50628;51.008;13.658;2023-09-18T23:12:53;3.78;;;1.25;;
64291;SDS011;50628;51.008;13.658;2023-09-18T23:17:56;3.70;;;1.20;;
64291;SDS011;50628;51.008;13.658;2023-09-18T23:22:58;3.33;;;1.00;;
64291;SDS011;50628;51.008;13.658;2023-09-18T23:28:03;4.30;;;1.30;;
64291;SDS011;50628;51.008;13.658;2023-09-18T23:33:06;5.10;;;0.90;;
64291;SDS011;50628;51.008;13.658;2023-09-18T23:38:10;5.15;;;1.00;;
64291;SDS011;50628;51.008;13.658;2023-09-18T23:43:14;3.13;;;1.00;;
64291;SDS011;50628;51.008;13.658;2023-09-18T23:48:17;2.30;;;0.82;;
64291;SDS011;50628;51.008;13.658;2023-09-18T23:53:23;4.05;;;1.30;;
64291;SDS011;50628;51.008;13.658;2023-09-18T23:58:26;3.10;;;1.15;;
